createdAt,value
2022-10-11T00:01:03.413Z,11.00
2022-10-11T00:03:36.368Z,10.90
2022-10-11T00:06:05.898Z,10.90
2022-10-11T00:08:36.394Z,10.80
2022-10-11T00:11:06.522Z,10.80
2022-10-11T00:13:41.129Z,10.70
2022-10-11T00:16:12.884Z,10.70
2022-10-11T00:18:40.304Z,10.70
2022-10-11T00:21:10.484Z,10.60
2022-10-11T00:23:38.306Z,10.60
2022-10-11T00:26:09.195Z,10.60
2022-10-11T00:28:37.003Z,10.50
2022-10-11T00:31:15.112Z,10.50
2022-10-11T00:33:42.546Z,10.50
2022-10-11T00:36:10.339Z,10.50
2022-10-11T00:38:38.791Z,10.40
2022-10-11T00:41:06.279Z,10.40
2022-10-11T00:43:35.851Z,10.40
2022-10-11T00:46:24.014Z,10.40
2022-10-11T00:48:59.255Z,10.40
2022-10-11T00:51:58.623Z,10.40
2022-10-11T00:54:30.822Z,10.40
2022-10-11T00:57:07.326Z,10.40
2022-10-11T00:59:41.555Z,10.40
2022-10-11T01:02:10.107Z,10.50
2022-10-11T01:04:37.257Z,10.50
2022-10-11T01:07:04.379Z,10.50
2022-10-11T01:09:31.919Z,10.50
2022-10-11T01:12:02.973Z,10.50
2022-10-11T01:14:32.655Z,10.50
2022-10-11T01:17:09.034Z,10.50
2022-10-11T01:19:56.832Z,10.50
2022-10-11T01:22:57.614Z,10.50
2022-10-11T01:25:57.975Z,10.50
2022-10-11T01:28:49.521Z,10.40
2022-10-11T01:31:37.005Z,10.30
2022-10-11T01:34:15.281Z,10.30
2022-10-11T01:36:57.674Z,10.20
2022-10-11T01:39:38.135Z,10.20
2022-10-11T01:42:10.183Z,10.20
2022-10-11T01:44:39.640Z,10.10
2022-10-11T01:47:06.570Z,10.10
2022-10-11T01:49:33.639Z,10.10
2022-10-11T01:52:05.807Z,10.10
2022-10-11T01:54:57.010Z,10.10
2022-10-11T01:57:53.531Z,10.00
2022-10-11T02:00:28.263Z,10.00
2022-10-11T02:03:16.457Z,10.00
2022-10-11T02:05:47.294Z,9.90
2022-10-11T02:08:43.119Z,9.90
2022-10-11T02:11:19.356Z,9.90
2022-10-11T02:14:21.533Z,9.80
2022-10-11T02:16:55.247Z,9.80
2022-10-11T02:19:30.340Z,9.80
2022-10-11T02:22:02.863Z,9.80
2022-10-11T02:24:33.422Z,9.70
2022-10-11T02:27:03.994Z,9.70
2022-10-11T02:29:36.153Z,9.70
2022-10-11T02:32:04.000Z,9.70
2022-10-11T02:34:38.473Z,9.70
2022-10-11T02:37:27.123Z,9.70
2022-10-11T02:40:01.519Z,9.60
2022-10-11T02:42:37.295Z,9.60
2022-10-11T02:45:19.067Z,9.60
2022-10-11T02:47:47.340Z,9.60
2022-10-11T02:50:15.103Z,9.60
2022-10-11T02:52:42.245Z,9.60
2022-10-11T02:55:10.377Z,9.60
2022-10-11T02:57:38.315Z,9.60
2022-10-11T03:00:06.481Z,9.60
2022-10-11T03:02:33.657Z,9.60
2022-10-11T03:05:00.693Z,9.50
2022-10-11T03:07:27.719Z,9.50
2022-10-11T03:09:54.681Z,9.50
2022-10-11T03:12:24.772Z,9.50
2022-10-11T03:14:53.064Z,9.50
2022-10-11T03:17:35.606Z,9.50
2022-10-11T03:20:04.809Z,9.50
2022-10-11T03:22:31.829Z,9.50
2022-10-11T03:25:03.663Z,9.50
2022-10-11T03:27:34.116Z,9.40
2022-10-11T03:30:01.819Z,9.40
2022-10-11T03:32:29.661Z,9.40
2022-10-11T03:34:56.865Z,9.40
2022-10-11T03:37:26.238Z,9.40
2022-10-11T03:39:57.306Z,9.40
2022-10-11T03:42:26.848Z,9.40
2022-10-11T03:44:53.891Z,9.30
2022-10-11T03:47:20.961Z,9.30
2022-10-11T03:49:51.130Z,9.30
2022-10-11T03:52:18.153Z,9.30
2022-10-11T03:54:45.157Z,9.30
2022-10-11T03:57:12.401Z,9.30
2022-10-11T03:59:39.266Z,9.30
2022-10-11T04:02:06.512Z,9.30
2022-10-11T04:04:33.700Z,9.30
2022-10-11T04:07:00.610Z,9.30
2022-10-11T04:09:27.663Z,9.30
2022-10-11T04:11:57.426Z,9.20
2022-10-11T04:14:24.464Z,9.20
2022-10-11T04:16:51.355Z,9.20
2022-10-11T04:19:18.589Z,9.20
2022-10-11T04:21:45.466Z,9.20
2022-10-11T04:24:12.628Z,9.20
2022-10-11T04:26:39.644Z,9.20
2022-10-11T04:29:09.794Z,9.20
2022-10-11T04:31:36.832Z,9.10
2022-10-11T04:34:03.841Z,9.10
2022-10-11T04:36:33.078Z,9.10
2022-10-11T04:39:01.723Z,9.10
2022-10-11T04:41:29.528Z,9.10
2022-10-11T04:43:56.763Z,9.10
2022-10-11T04:46:24.286Z,9.10
2022-10-11T04:48:51.559Z,9.10
2022-10-11T04:51:18.907Z,9.10
2022-10-11T04:53:48.624Z,9.10
2022-10-11T04:56:18.374Z,9.10
2022-10-11T04:58:48.225Z,9.10
2022-10-11T05:01:15.675Z,9.10
2022-10-11T05:03:42.853Z,9.00
2022-10-11T05:06:10.120Z,9.00
2022-10-11T05:08:38.310Z,9.00
2022-10-11T05:11:07.481Z,9.00
2022-10-11T05:13:36.133Z,9.00
2022-10-11T05:16:08.445Z,9.00
2022-10-11T05:18:37.721Z,9.00
2022-10-11T05:21:07.603Z,9.00
2022-10-11T05:23:36.230Z,9.00
2022-10-11T05:26:04.007Z,9.00
2022-10-11T05:28:31.734Z,9.00
2022-10-11T05:30:58.912Z,9.00
2022-10-11T05:33:25.950Z,9.00
2022-10-11T05:35:53.005Z,9.00
2022-10-11T05:38:20.060Z,9.00
2022-10-11T05:40:47.249Z,9.00
2022-10-11T05:43:16.470Z,9.00
2022-10-11T05:45:44.748Z,9.00
2022-10-11T05:48:12.650Z,9.00
2022-10-11T05:50:40.502Z,9.00
2022-10-11T05:53:08.464Z,9.00
2022-10-11T05:55:40.325Z,9.00
2022-10-11T05:58:15.778Z,9.00
2022-10-11T06:00:45.861Z,9.00
2022-10-11T06:03:13.852Z,9.00
2022-10-11T06:05:40.955Z,9.00
2022-10-11T06:08:10.098Z,9.00
2022-10-11T06:10:38.481Z,9.00
2022-10-11T06:13:06.373Z,9.00
2022-10-11T06:15:34.313Z,9.00
2022-10-11T06:18:04.410Z,9.00
2022-10-11T06:20:31.552Z,9.10
2022-10-11T06:23:00.863Z,9.10
2022-10-11T06:25:29.750Z,9.10
2022-10-11T06:27:58.792Z,9.20
2022-10-11T06:30:28.850Z,9.20
2022-10-11T06:32:56.053Z,9.30
2022-10-11T06:35:23.703Z,9.30
2022-10-11T06:37:56.331Z,9.40
2022-10-11T06:40:25.791Z,9.40
2022-10-11T06:42:57.628Z,9.50
2022-10-11T06:45:29.394Z,9.50
2022-10-11T06:47:56.547Z,9.60
2022-10-11T06:50:54.285Z,9.70
2022-10-11T06:53:14.419Z,9.70
2022-10-11T06:55:47.105Z,9.80
2022-10-11T06:58:15.148Z,9.80
2022-10-11T07:00:42.769Z,9.80
2022-10-11T07:03:12.936Z,9.90
2022-10-11T07:05:40.533Z,10.10
2022-10-11T07:08:08.756Z,10.20
2022-10-11T07:10:40.313Z,10.30
2022-10-11T07:13:21.357Z,10.40
2022-10-11T07:16:22.779Z,10.60
2022-10-11T07:18:58.742Z,10.80
2022-10-11T07:21:27.275Z,10.90
2022-10-11T07:23:54.523Z,11.00
2022-10-11T07:26:21.599Z,11.10
2022-10-11T07:28:48.567Z,11.20
2022-10-11T07:31:19.198Z,11.20
2022-10-11T07:33:46.678Z,11.30
2022-10-11T07:36:13.962Z,11.40
2022-10-11T07:38:45.833Z,11.50
2022-10-11T07:41:13.236Z,11.60
2022-10-11T07:43:40.156Z,11.70
2022-10-11T07:46:08.280Z,11.80
2022-10-11T07:48:36.656Z,11.90
2022-10-11T07:51:08.319Z,12.00
2022-10-11T07:53:44.020Z,12.10
2022-10-11T07:56:13.439Z,12.20
2022-10-11T07:58:41.782Z,12.40
2022-10-11T08:01:10.229Z,12.50
2022-10-11T08:03:41.215Z,12.60
2022-10-11T08:06:09.871Z,12.80
2022-10-11T08:08:38.049Z,12.90
2022-10-11T08:11:06.238Z,13.00
2022-10-11T08:13:33.578Z,13.00
2022-10-11T08:16:01.266Z,13.10
2022-10-11T08:18:28.417Z,13.20
2022-10-11T08:20:56.005Z,13.40
2022-10-11T08:23:22.972Z,13.60
2022-10-11T08:25:49.919Z,13.70
2022-10-11T08:28:18.031Z,13.90
2022-10-11T08:30:53.121Z,14.00
2022-10-11T08:33:22.302Z,14.10
2022-10-11T08:35:50.542Z,14.30
2022-10-11T08:38:18.306Z,14.40
2022-10-11T08:40:56.150Z,14.50
2022-10-11T08:43:38.121Z,14.70
2022-10-11T08:46:07.949Z,14.80
2022-10-11T08:48:40.095Z,14.90
2022-10-11T08:51:21.050Z,15.00
2022-10-11T08:53:57.370Z,15.10
2022-10-11T08:56:26.601Z,15.20
2022-10-11T08:59:14.347Z,15.30
2022-10-11T09:01:47.596Z,15.30
2022-10-11T09:04:17.377Z,15.50
2022-10-11T09:07:04.782Z,15.60
2022-10-11T09:09:53.444Z,15.60
2022-10-11T09:12:38.384Z,15.80
2022-10-11T09:15:47.018Z,16.00
2022-10-11T09:18:56.883Z,16.10
2022-10-11T09:21:42.237Z,16.20
2022-10-11T09:24:11.870Z,16.30
2022-10-11T09:26:50.094Z,16.40
2022-10-11T09:29:42.957Z,16.50
2022-10-11T09:32:16.127Z,16.60
2022-10-11T09:34:43.785Z,16.70
2022-10-11T09:37:29.981Z,16.80
2022-10-11T09:40:21.687Z,16.90
2022-10-11T09:42:48.765Z,17.00
2022-10-11T09:45:21.004Z,17.10
2022-10-11T09:47:50.978Z,17.10
2022-10-11T09:50:25.873Z,17.20
2022-10-11T09:52:55.289Z,17.20
2022-10-11T09:55:40.301Z,17.20
2022-10-11T09:58:25.769Z,17.40
2022-10-11T10:01:02.768Z,17.40
2022-10-11T10:03:39.787Z,17.50
2022-10-11T10:06:16.353Z,17.70
2022-10-11T10:08:45.595Z,17.80
2022-10-11T10:11:12.999Z,17.90
2022-10-11T10:13:56.390Z,18.00
2022-10-11T10:16:29.686Z,18.10
2022-10-11T10:19:03.542Z,18.20
2022-10-11T10:21:36.766Z,18.30
2022-10-11T10:24:33.086Z,18.30
2022-10-11T10:27:22.787Z,18.40
2022-10-11T10:30:07.870Z,18.50
2022-10-11T10:32:51.586Z,18.60
2022-10-11T10:35:32.795Z,18.60
2022-10-11T10:38:16.599Z,18.70
2022-10-11T10:41:03.864Z,18.70
2022-10-11T10:43:34.947Z,18.60
2022-10-11T10:46:12.915Z,18.60
2022-10-11T10:49:34.520Z,18.70
2022-10-11T10:52:11.551Z,18.80
2022-10-11T10:54:45.497Z,18.90
2022-10-11T10:57:19.268Z,18.90
2022-10-11T11:00:10.876Z,19.00
2022-10-11T11:02:41.664Z,19.10
2022-10-11T11:05:23.696Z,19.10
2022-10-11T11:08:00.740Z,19.30
2022-10-11T11:10:56.054Z,19.30
2022-10-11T11:13:45.700Z,19.40
2022-10-11T11:16:32.064Z,19.40
2022-10-11T11:19:21.021Z,19.50
2022-10-11T11:22:12.821Z,19.50
2022-10-11T11:24:46.250Z,19.60
2022-10-11T11:27:18.920Z,19.70
2022-10-11T11:30:01.537Z,19.90
2022-10-11T11:32:28.392Z,20.00
2022-10-11T11:35:02.217Z,20.20
2022-10-11T11:37:34.710Z,20.30
2022-10-11T11:40:18.244Z,20.40
2022-10-11T11:42:51.519Z,20.50
2022-10-11T11:45:26.155Z,20.50
2022-10-11T11:48:20.923Z,20.50
2022-10-11T11:55:11.241Z,20.70
2022-10-11T11:58:00.186Z,20.70
2022-10-11T12:00:43.052Z,20.60
2022-10-11T12:03:16.289Z,20.50
2022-10-11T12:06:16.752Z,20.30
2022-10-11T12:09:05.927Z,20.20
2022-10-11T12:11:59.284Z,20.20
2022-10-11T12:14:30.568Z,20.20
2022-10-11T12:17:21.604Z,20.20
2022-10-11T12:20:43.454Z,20.10
2022-10-11T12:23:28.755Z,20.10
2022-10-11T12:26:33.481Z,20.00
2022-10-11T12:29:28.465Z,20.00
2022-10-11T12:32:06.501Z,19.90
2022-10-11T12:35:11.265Z,19.90
2022-10-11T12:37:41.202Z,19.90
2022-10-11T12:40:58.186Z,19.90
2022-10-11T12:43:35.090Z,20.00
2022-10-11T12:46:40.260Z,20.10
2022-10-11T12:49:41.670Z,20.30
2022-10-11T12:53:04.598Z,20.50
2022-10-11T12:55:52.901Z,20.60
2022-10-11T12:58:55.192Z,20.70
2022-10-11T13:01:41.136Z,20.80
2022-10-11T13:04:29.375Z,20.70
2022-10-11T13:07:42.045Z,20.60
2022-10-11T13:10:46.800Z,20.60
2022-10-11T13:14:04.104Z,20.60
2022-10-11T13:17:08.691Z,20.70
2022-10-11T13:19:38.088Z,20.90
2022-10-11T13:22:16.394Z,21.10
2022-10-11T13:24:43.747Z,21.40
2022-10-11T13:27:20.280Z,21.80
2022-10-11T13:29:49.022Z,21.80
2022-10-11T13:32:22.139Z,21.70
2022-10-11T13:37:32.104Z,21.30
2022-10-11T13:39:59.230Z,21.00
2022-10-11T13:42:30.815Z,20.70
2022-10-11T13:44:59.018Z,20.70
2022-10-11T13:47:31.784Z,20.60
2022-10-11T13:50:10.990Z,20.40
2022-10-11T13:52:57.563Z,20.10
2022-10-11T13:55:32.013Z,19.80
2022-10-11T13:58:00.779Z,19.70
2022-10-11T14:00:39.510Z,19.60
2022-10-11T14:03:20.334Z,19.50
2022-10-11T14:05:59.417Z,19.40
2022-10-11T14:08:38.281Z,19.30
2022-10-11T14:11:07.173Z,19.20
2022-10-11T14:13:40.868Z,19.20
2022-10-11T14:16:13.288Z,19.30
2022-10-11T14:19:10.009Z,19.30
2022-10-11T14:21:46.825Z,19.20
2022-10-11T14:24:15.037Z,19.10
2022-10-11T14:26:49.062Z,19.00
2022-10-11T14:29:36.635Z,18.90
2022-10-11T14:32:08.739Z,18.80
2022-10-11T14:34:36.889Z,18.70
2022-10-11T14:37:04.109Z,18.60
2022-10-11T14:39:33.146Z,18.60
2022-10-11T14:42:00.864Z,18.50
2022-10-11T14:44:27.769Z,18.60
2022-10-11T14:46:55.127Z,18.60
2022-10-11T14:49:28.112Z,18.70
2022-10-11T14:51:58.048Z,18.80
2022-10-11T14:54:30.820Z,18.90
2022-10-11T14:57:01.175Z,18.90
2022-10-11T14:59:34.596Z,19.00
2022-10-11T15:02:02.474Z,19.00
2022-10-11T15:04:29.804Z,19.10
2022-10-11T15:06:57.863Z,19.10
2022-10-11T15:09:28.515Z,19.10
2022-10-11T15:11:56.794Z,19.20
2022-10-11T15:14:25.376Z,19.20
2022-10-11T15:16:53.200Z,19.30
2022-10-11T15:19:23.632Z,19.40
2022-10-11T15:21:51.119Z,19.40
2022-10-11T15:24:20.251Z,19.40
2022-10-11T15:26:48.689Z,19.40
2022-10-11T15:29:18.010Z,19.30
2022-10-11T15:31:47.151Z,19.30
2022-10-11T15:34:14.384Z,19.20
2022-10-11T15:36:41.659Z,19.10
2022-10-11T15:39:26.067Z,19.00
2022-10-11T15:41:53.439Z,18.90
2022-10-11T15:44:20.560Z,18.80
2022-10-11T15:46:47.822Z,18.70
2022-10-11T15:49:15.120Z,18.70
2022-10-11T15:51:42.250Z,18.60
2022-10-11T15:54:09.257Z,18.60
2022-10-11T15:56:36.571Z,18.50
2022-10-11T15:59:04.056Z,18.40
2022-10-11T16:01:31.343Z,18.30
2022-10-11T16:03:58.720Z,18.20
2022-10-11T16:06:25.686Z,18.20
2022-10-11T16:08:52.866Z,18.10
2022-10-11T16:11:20.058Z,18.10
2022-10-11T16:13:47.686Z,18.00
2022-10-11T16:16:14.655Z,17.90
2022-10-11T16:18:41.782Z,17.80
2022-10-11T16:21:11.435Z,17.80
2022-10-11T16:23:39.042Z,17.70
2022-10-11T16:26:09.352Z,17.70
2022-10-11T16:28:38.143Z,17.60
2022-10-11T16:31:10.160Z,17.50
2022-10-11T16:33:45.888Z,17.40
2022-10-11T16:36:32.493Z,17.30
2022-10-11T16:39:01.696Z,17.20
2022-10-11T16:41:28.642Z,17.10
2022-10-11T16:43:56.157Z,17.10
2022-10-11T16:46:23.477Z,17.00
2022-10-11T16:48:50.684Z,16.90
2022-10-11T16:51:17.714Z,16.80
2022-10-11T16:53:45.293Z,16.80
2022-10-11T16:56:12.886Z,16.70
2022-10-11T16:58:39.945Z,16.70
2022-10-11T17:01:11.266Z,16.60
2022-10-11T17:03:38.928Z,16.50
2022-10-11T17:06:07.046Z,16.50
2022-10-11T17:08:35.206Z,16.40
2022-10-11T17:11:02.799Z,16.30
2022-10-11T17:13:29.995Z,16.30
2022-10-11T17:15:59.385Z,16.20
2022-10-11T17:18:26.480Z,16.10
2022-10-11T17:21:04.812Z,16.10
2022-10-11T17:23:33.222Z,16.00
2022-10-11T17:26:07.325Z,15.90
2022-10-11T17:28:37.992Z,15.90
2022-10-11T17:31:05.900Z,15.80
2022-10-11T17:33:33.796Z,15.80
2022-10-11T17:36:01.486Z,15.70
2022-10-11T17:38:28.677Z,15.70
2022-10-11T17:41:05.980Z,15.70
2022-10-11T17:43:33.460Z,15.60
2022-10-11T17:46:04.337Z,15.50
2022-10-11T17:48:35.077Z,15.50
2022-10-11T17:51:06.661Z,15.40
2022-10-11T17:53:34.193Z,15.40
2022-10-11T17:56:05.505Z,15.40
2022-10-11T17:58:32.608Z,15.30
2022-10-11T18:01:09.522Z,15.30
2022-10-11T18:03:36.969Z,15.30
2022-10-11T18:06:12.821Z,15.20
2022-10-11T18:08:41.054Z,15.20
2022-10-11T18:11:17.897Z,15.20
2022-10-11T18:13:49.394Z,15.20
2022-10-11T18:16:22.819Z,15.10
2022-10-11T18:18:54.096Z,15.10
2022-10-11T18:21:21.453Z,15.00
2022-10-11T18:23:48.406Z,15.00
2022-10-11T18:26:24.444Z,14.90
2022-10-11T18:28:55.965Z,14.90
2022-10-11T18:31:26.819Z,14.80
2022-10-11T18:33:54.451Z,14.80
2022-10-11T18:36:27.867Z,14.80
2022-10-11T18:38:57.190Z,14.80
2022-10-11T18:41:30.813Z,14.70
2022-10-11T18:44:03.970Z,14.70
2022-10-11T18:46:38.623Z,14.70
2022-10-11T18:49:05.748Z,14.60
2022-10-11T18:51:38.030Z,14.60
2022-10-11T18:54:07.046Z,14.60
2022-10-11T18:56:36.481Z,14.50
2022-10-11T18:59:05.006Z,14.50
2022-10-11T19:01:35.659Z,14.50
2022-10-11T19:04:05.178Z,14.40
2022-10-11T19:06:35.630Z,14.40
2022-10-11T19:09:07.054Z,14.30
2022-10-11T19:11:37.530Z,14.30
2022-10-11T19:14:12.179Z,14.30
2022-10-11T19:16:42.725Z,14.20
2022-10-11T19:19:11.806Z,14.20
2022-10-11T19:21:39.602Z,14.20
2022-10-11T19:24:07.001Z,14.10
2022-10-11T19:26:40.553Z,14.10
2022-10-11T19:29:16.805Z,14.10
2022-10-11T19:31:46.944Z,14.00
2022-10-11T19:34:16.940Z,14.00
2022-10-11T19:36:47.180Z,13.90
2022-10-11T19:39:15.367Z,13.90
2022-10-11T19:41:43.624Z,13.90
2022-10-11T19:44:12.077Z,13.90
2022-10-11T19:46:54.872Z,13.80
2022-10-11T19:49:25.048Z,13.80
2022-10-11T19:51:55.816Z,13.80
2022-10-11T19:54:23.237Z,13.70
2022-10-11T19:56:52.227Z,13.70
2022-10-11T19:59:19.729Z,13.70
2022-10-11T20:01:51.963Z,13.60
2022-10-11T20:04:39.993Z,13.60
2022-10-11T20:07:06.916Z,13.60
2022-10-11T20:09:33.851Z,13.50
2022-10-11T20:12:01.406Z,13.50
2022-10-11T20:14:28.665Z,13.50
2022-10-11T20:16:58.758Z,13.50
2022-10-11T20:19:31.360Z,13.40
2022-10-11T20:21:59.932Z,13.40
2022-10-11T20:24:29.059Z,13.40
2022-10-11T20:26:56.066Z,13.30
2022-10-11T20:29:25.380Z,13.30
2022-10-11T20:31:52.763Z,13.30
2022-10-11T20:34:19.692Z,13.30
2022-10-11T20:36:49.079Z,13.20
2022-10-11T20:39:19.374Z,13.20
2022-10-11T20:41:46.572Z,13.20
2022-10-11T20:44:16.168Z,13.20
2022-10-11T20:46:43.225Z,13.10
2022-10-11T20:49:12.467Z,13.10
2022-10-11T20:51:41.869Z,13.10
2022-10-11T20:54:09.209Z,13.10
2022-10-11T20:56:37.222Z,13.00
2022-10-11T20:59:05.132Z,13.00
